createdAt,value
2022-10-20T00:00:17.304Z,101355.03
2022-10-20T00:02:12.643Z,101355.03
2022-10-20T00:02:43.672Z,101342.47
2022-10-20T00:05:10.682Z,101260.22
2022-10-20T00:07:12.625Z,101260.22
2022-10-20T00:07:37.007Z,101327.84
2022-10-20T00:10:03.498Z,101322.28
2022-10-20T00:12:12.785Z,101322.28
2022-10-20T00:12:29.896Z,101324.75
2022-10-20T00:14:56.232Z,101334.13
2022-10-20T00:17:12.637Z,101334.13
2022-10-20T00:17:22.601Z,101284.16
2022-10-20T00:19:49.064Z,101249.75
2022-10-20T00:22:12.697Z,101249.75
2022-10-20T00:22:15.874Z,101259.94
2022-10-20T00:24:42.632Z,101295.19
2022-10-20T00:27:09.311Z,101297.91
2022-10-20T00:27:12.595Z,101297.91
2022-10-20T00:29:35.792Z,101265.69
2022-10-20T00:32:02.152Z,101285.31
2022-10-20T00:32:12.620Z,101285.31
2022-10-20T00:34:28.488Z,101263.66
2022-10-20T00:36:54.828Z,101308.41
2022-10-20T00:37:12.610Z,101308.41
2022-10-20T00:39:21.165Z,101305.09
2022-10-20T00:41:47.462Z,101288.94
2022-10-20T00:42:12.616Z,101288.94
2022-10-20T00:44:50.081Z,101263.47
2022-10-20T00:47:12.614Z,101263.47
2022-10-20T00:47:20.552Z,101262.50
2022-10-20T00:49:49.667Z,101207.16
2022-10-20T00:52:12.624Z,101207.16
2022-10-20T00:52:20.390Z,101262.81
2022-10-20T00:54:47.390Z,101268.84
2022-10-20T00:57:14.065Z,101245.94
2022-10-20T00:57:14.216Z,101245.94
2022-10-20T00:59:40.834Z,101252.59
2022-10-20T01:02:09.342Z,101207.53
2022-10-20T01:02:12.613Z,101207.53
2022-10-20T01:04:37.524Z,101261.25
2022-10-20T01:07:04.325Z,101227.31
2022-10-20T01:07:12.607Z,101227.31
2022-10-20T01:09:31.100Z,101201.13
2022-10-20T01:12:22.734Z,101123.66
2022-10-20T01:12:22.874Z,101123.66
2022-10-20T01:15:07.749Z,101049.59
2022-10-20T01:17:12.611Z,101049.59
2022-10-20T01:18:02.289Z,101241.66
2022-10-20T01:21:04.371Z,101253.28
2022-10-20T01:22:12.670Z,101253.28
2022-10-20T01:24:07.579Z,101241.50
2022-10-20T01:27:10.989Z,101236.31
2022-10-20T01:27:12.645Z,101236.31
2022-10-20T01:29:45.415Z,101239.19
2022-10-20T01:32:23.322Z,101205.00
2022-10-20T01:32:23.451Z,101205.00
2022-10-20T01:35:07.626Z,101239.41
2022-10-20T01:37:19.738Z,101239.41
2022-10-20T01:37:49.677Z,101244.09
2022-10-20T01:40:37.806Z,101156.97
2022-10-20T01:42:12.647Z,101156.97
2022-10-20T01:43:08.280Z,101240.34
2022-10-20T01:45:39.315Z,101222.72
2022-10-20T01:47:12.664Z,101222.72
2022-10-20T01:48:07.416Z,101212.31
2022-10-20T01:50:35.681Z,101209.63
2022-10-20T01:52:12.690Z,101209.63
2022-10-20T01:53:02.584Z,101207.41
2022-10-20T01:55:29.331Z,101204.06
2022-10-20T01:57:12.646Z,101204.06
2022-10-20T01:58:35.244Z,101189.06
2022-10-20T02:01:33.010Z,101192.59
2022-10-20T02:02:12.654Z,101192.59
2022-10-20T02:04:02.107Z,101183.03
2022-10-20T02:06:54.078Z,101183.63
2022-10-20T02:07:12.656Z,101183.63
2022-10-20T02:09:31.693Z,101188.28
2022-10-20T02:12:29.912Z,101051.38
2022-10-20T02:12:30.058Z,101051.38
2022-10-20T02:14:57.331Z,101146.00
2022-10-20T02:17:12.637Z,101146.00
2022-10-20T02:17:23.831Z,101099.88
2022-10-20T02:19:51.701Z,101074.91
2022-10-20T02:22:12.679Z,101074.91
2022-10-20T02:22:20.122Z,101132.00
2022-10-20T02:24:47.018Z,101098.81
2022-10-20T02:27:16.555Z,101140.47
2022-10-20T02:27:16.674Z,101140.47
2022-10-20T02:29:48.493Z,101155.94
2022-10-20T02:32:12.658Z,101155.94
2022-10-20T02:32:16.198Z,101121.78
2022-10-20T02:34:43.203Z,101131.06
2022-10-20T02:37:10.120Z,101126.63
2022-10-20T02:37:12.760Z,101126.63
2022-10-20T02:39:36.543Z,101164.47
2022-10-20T02:42:02.941Z,101150.88
2022-10-20T02:42:12.657Z,101150.88
2022-10-20T02:44:29.374Z,101132.66
2022-10-20T02:46:55.717Z,101089.88
2022-10-20T02:47:12.681Z,101089.88
2022-10-20T02:49:22.148Z,101074.09
2022-10-20T02:51:48.769Z,101115.28
2022-10-20T02:52:12.657Z,101115.28
2022-10-20T02:54:15.114Z,101115.03
2022-10-20T02:56:41.414Z,101121.91
2022-10-20T02:57:12.687Z,101121.91
2022-10-20T02:59:12.876Z,101120.69
2022-10-20T03:01:39.466Z,101124.41
2022-10-20T03:02:12.650Z,101124.41
2022-10-20T03:04:05.816Z,101088.69
2022-10-20T03:06:32.155Z,101120.22
2022-10-20T03:07:12.670Z,101120.22
2022-10-20T03:08:58.606Z,100915.97
2022-10-20T03:11:25.064Z,101108.09
2022-10-20T03:12:12.651Z,101108.09
2022-10-20T03:13:51.605Z,101120.00
2022-10-20T03:16:17.925Z,101083.06
2022-10-20T03:17:12.666Z,101083.06
2022-10-20T03:18:44.234Z,101061.88
2022-10-20T03:21:10.587Z,101108.91
2022-10-20T03:22:12.763Z,101108.91
2022-10-20T03:23:37.053Z,101108.38
2022-10-20T03:26:08.425Z,101106.13
2022-10-20T03:27:12.671Z,101106.13
2022-10-20T03:28:34.811Z,101100.72
2022-10-20T03:31:01.129Z,101095.25
2022-10-20T03:32:12.693Z,101095.25
2022-10-20T03:33:27.569Z,101102.28
2022-10-20T03:35:53.937Z,101090.84
2022-10-20T03:37:12.662Z,101090.84
2022-10-20T03:38:20.274Z,101089.28
2022-10-20T03:40:46.589Z,101064.59
2022-10-20T03:42:12.895Z,101064.59
2022-10-20T03:43:15.182Z,101090.22
2022-10-20T03:45:42.601Z,101014.94
2022-10-20T03:47:12.693Z,101014.94
2022-10-20T03:48:10.710Z,101074.13
2022-10-20T03:50:41.997Z,101075.06
2022-10-20T03:52:12.664Z,101075.06
2022-10-20T03:53:15.439Z,101066.16
2022-10-20T03:55:41.758Z,101014.47
2022-10-20T03:57:12.672Z,101014.47
2022-10-20T03:58:08.221Z,101008.94
2022-10-20T04:00:34.512Z,101040.56
2022-10-20T04:02:12.663Z,101040.56
2022-10-20T04:03:00.841Z,101001.69
2022-10-20T04:05:27.190Z,101016.38
2022-10-20T04:07:12.694Z,101016.38
2022-10-20T04:07:53.602Z,100991.94
2022-10-20T04:10:20.117Z,101064.09
2022-10-20T04:12:12.670Z,101064.09
2022-10-20T04:12:46.493Z,101062.88
2022-10-20T04:15:12.908Z,101071.44
2022-10-20T04:17:13.013Z,101071.44
2022-10-20T04:20:11.414Z,101045.38
2022-10-20T04:22:12.843Z,101045.38
2022-10-20T04:22:38.539Z,101045.03
2022-10-20T04:25:05.820Z,101046.81
2022-10-20T04:27:12.699Z,101046.81
2022-10-20T04:27:32.410Z,101001.94
2022-10-20T04:29:58.935Z,100987.59
2022-10-20T04:32:12.690Z,100987.59
2022-10-20T04:32:25.249Z,101014.28
2022-10-20T04:34:51.709Z,100999.47
2022-10-20T04:37:12.681Z,100999.47
2022-10-20T04:37:18.076Z,101014.00
2022-10-20T04:39:44.412Z,101017.50
2022-10-20T04:42:10.817Z,101000.31
2022-10-20T04:42:12.676Z,101000.31
2022-10-20T04:44:37.140Z,101026.25
2022-10-20T04:47:03.498Z,101011.25
2022-10-20T04:47:12.682Z,101011.25
2022-10-20T04:49:29.850Z,100837.22
2022-10-20T04:52:00.824Z,100882.81
2022-10-20T04:52:12.688Z,100882.81
2022-10-20T04:54:27.766Z,100997.84
2022-10-20T04:56:54.172Z,100981.91
2022-10-20T04:57:12.683Z,100981.91
2022-10-20T04:59:20.553Z,100968.91
2022-10-20T05:01:46.950Z,100904.91
2022-10-20T05:02:12.669Z,100904.91
2022-10-20T05:04:20.824Z,100987.72
2022-10-20T05:06:48.927Z,100993.50
2022-10-20T05:07:12.686Z,100993.50
2022-10-20T05:09:16.426Z,100913.28
2022-10-20T05:11:43.116Z,100922.34
2022-10-20T05:12:12.682Z,100922.34
2022-10-20T05:14:09.508Z,100967.16
2022-10-20T05:16:35.805Z,100965.59
2022-10-20T05:17:13.047Z,100965.59
2022-10-20T05:19:02.138Z,100947.75
2022-10-20T05:21:30.637Z,100934.56
2022-10-20T05:22:12.755Z,100934.56
2022-10-20T05:24:01.891Z,100953.13
2022-10-20T05:26:34.342Z,100943.34
2022-10-20T05:27:12.680Z,100943.34
2022-10-20T05:29:02.003Z,100949.09
2022-10-20T05:31:28.442Z,100939.50
2022-10-20T05:32:12.689Z,100939.50
2022-10-20T05:33:56.770Z,100885.22
2022-10-20T05:36:25.767Z,100939.22
2022-10-20T05:37:12.731Z,100939.22
2022-10-20T05:38:54.369Z,100942.47
2022-10-20T05:41:26.309Z,100938.91
2022-10-20T05:42:12.705Z,100938.91
2022-10-20T05:43:57.177Z,100937.97
2022-10-20T05:46:26.528Z,100938.81
2022-10-20T05:47:12.687Z,100938.81
2022-10-20T05:49:00.798Z,100942.38
2022-10-20T05:51:30.493Z,100881.69
2022-10-20T05:52:12.707Z,100881.69
2022-10-20T05:53:58.250Z,100841.44
2022-10-20T05:56:26.741Z,100923.63
2022-10-20T05:57:12.693Z,100923.63
2022-10-20T05:58:53.245Z,100917.03
2022-10-20T06:01:24.227Z,100930.59
2022-10-20T06:02:12.681Z,100930.59
2022-10-20T06:03:58.817Z,100931.16
2022-10-20T06:06:29.957Z,100926.19
2022-10-20T06:07:12.692Z,100926.19
2022-10-20T06:08:59.079Z,100924.22
2022-10-20T06:11:26.349Z,100927.97
2022-10-20T06:12:12.702Z,100927.97
2022-10-20T06:13:53.433Z,100916.75
2022-10-20T06:16:22.727Z,100920.81
2022-10-20T06:17:12.852Z,100920.81
2022-10-20T06:18:49.116Z,100897.41
2022-10-20T06:21:21.432Z,100944.75
2022-10-20T06:22:12.792Z,100944.75
2022-10-20T06:23:47.913Z,100907.44
2022-10-20T06:26:19.861Z,100872.53
2022-10-20T06:27:12.809Z,100872.53
2022-10-20T06:28:48.978Z,100964.81
2022-10-20T06:31:20.781Z,100958.63
2022-10-20T06:33:48.081Z,100899.47
2022-10-20T06:36:15.624Z,100959.13
2022-10-20T06:37:12.718Z,100959.13
2022-10-20T06:38:42.684Z,100959.75
2022-10-20T06:41:14.173Z,100891.09
2022-10-20T06:42:12.687Z,100891.09
2022-10-20T06:43:40.949Z,100948.13
2022-10-20T06:46:11.304Z,100960.31
2022-10-20T06:47:12.749Z,100960.31
2022-10-20T06:48:40.688Z,100945.63
2022-10-20T06:51:11.036Z,100963.50
2022-10-20T06:52:12.696Z,100963.50
2022-10-20T06:53:39.565Z,100950.59
2022-10-20T06:56:13.129Z,100943.34
2022-10-20T06:57:12.992Z,100943.34
2022-10-20T06:58:41.320Z,100940.56
2022-10-20T07:01:16.204Z,100906.31
2022-10-20T07:02:12.760Z,100906.31
2022-10-20T07:03:45.057Z,100951.13
2022-10-20T07:06:17.177Z,100936.16
2022-10-20T07:07:12.691Z,100936.16
2022-10-20T07:08:43.768Z,100902.25
2022-10-20T07:11:16.481Z,100970.94
2022-10-20T07:12:12.692Z,100970.94
2022-10-20T07:13:43.466Z,100960.09
2022-10-20T07:16:13.458Z,100933.16
2022-10-20T07:17:12.702Z,100933.16
2022-10-20T07:18:40.020Z,100899.78
2022-10-20T07:21:09.805Z,100964.13
2022-10-20T07:22:12.737Z,100964.13
2022-10-20T07:23:36.398Z,100885.13
2022-10-20T07:26:02.659Z,100956.03
2022-10-20T07:27:12.707Z,100956.03
2022-10-20T07:28:29.954Z,100892.44
2022-10-20T07:30:59.064Z,100961.81
2022-10-20T07:32:12.768Z,100961.81
2022-10-20T07:33:25.378Z,100932.97
2022-10-20T07:35:51.777Z,100946.81
2022-10-20T07:37:12.724Z,100946.81
2022-10-20T07:38:18.134Z,100895.00
2022-10-20T07:40:44.478Z,100932.91
2022-10-20T07:42:12.698Z,100932.91
2022-10-20T07:43:10.904Z,100902.69
2022-10-20T07:45:37.248Z,100937.66
2022-10-20T07:47:12.702Z,100937.66
2022-10-20T07:48:04.252Z,100945.22
2022-10-20T07:50:30.603Z,100943.25
2022-10-20T07:52:12.703Z,100943.25
2022-10-20T07:52:56.988Z,100891.47
2022-10-20T07:55:38.002Z,100892.00
2022-10-20T07:57:12.705Z,100892.00
2022-10-20T07:58:05.613Z,100913.31
2022-10-20T08:00:32.007Z,100934.38
2022-10-20T08:02:12.749Z,100934.38
2022-10-20T08:02:58.393Z,100939.72
2022-10-20T08:05:24.984Z,100949.91
2022-10-20T08:07:12.694Z,100949.91
2022-10-20T08:07:51.384Z,100949.91
2022-10-20T08:10:17.764Z,100929.78
2022-10-20T08:12:12.701Z,100929.78
2022-10-20T08:12:44.116Z,100948.47
2022-10-20T08:15:10.519Z,100899.75
2022-10-20T08:16:48.959Z,100899.75
2022-10-20T08:17:36.878Z,100935.88
2022-10-20T08:20:24.887Z,100948.22
2022-10-20T08:21:48.387Z,100948.22
2022-10-20T08:22:53.474Z,100907.38
2022-10-20T08:25:19.825Z,100898.72
2022-10-20T08:26:48.286Z,100898.72
2022-10-20T08:27:46.169Z,100949.66
2022-10-20T08:30:23.463Z,100786.34
2022-10-20T08:31:48.280Z,100786.34
2022-10-20T08:32:54.156Z,100955.84
2022-10-20T08:35:22.188Z,100925.22
2022-10-20T08:36:48.265Z,100925.22
2022-10-20T08:37:48.851Z,100913.22
2022-10-20T08:40:25.742Z,100947.94
2022-10-20T08:42:06.833Z,100947.94
2022-10-20T08:42:52.400Z,100866.06
2022-10-20T08:45:21.377Z,100936.97
2022-10-20T08:46:48.273Z,100936.97
2022-10-20T08:47:50.300Z,100901.19
2022-10-20T08:50:18.904Z,100947.00
2022-10-20T08:51:48.269Z,100947.00
2022-10-20T08:52:47.236Z,100966.09
2022-10-20T08:55:33.091Z,100948.25
2022-10-20T08:56:48.288Z,100948.25
2022-10-20T08:58:11.601Z,100820.72
2022-10-20T09:00:39.380Z,100954.97
2022-10-20T09:01:48.346Z,100954.97
2022-10-20T09:03:17.540Z,100952.75
2022-10-20T09:05:49.266Z,100946.31
2022-10-20T09:06:48.280Z,100946.31
2022-10-20T09:08:15.737Z,100911.59
2022-10-20T09:10:47.221Z,100928.63
2022-10-20T09:11:48.274Z,100928.63
2022-10-20T09:13:21.046Z,100925.56
2022-10-20T09:15:49.987Z,100908.00
2022-10-20T09:16:59.854Z,100908.00
2022-10-20T09:18:16.569Z,100922.25
2022-10-20T09:20:56.164Z,100908.00
2022-10-20T09:21:48.384Z,100908.00
2022-10-20T09:23:40.580Z,100833.81
2022-10-20T09:26:32.147Z,100912.22
2022-10-20T09:26:59.143Z,100912.22
2022-10-20T09:29:15.386Z,100886.81
2022-10-20T09:31:54.243Z,100833.25
2022-10-20T09:31:54.349Z,100833.25
2022-10-20T09:34:34.625Z,100915.13
2022-10-20T09:36:48.262Z,100915.13
2022-10-20T09:37:06.911Z,100897.34
2022-10-20T09:39:55.099Z,100896.72
2022-10-20T09:41:48.300Z,100896.72
2022-10-20T09:42:40.209Z,100899.66
2022-10-20T09:45:17.656Z,100855.56
2022-10-20T09:46:48.277Z,100855.56
2022-10-20T09:47:46.590Z,100897.84
2022-10-20T09:50:27.368Z,100873.50
2022-10-20T09:51:48.343Z,100873.50
2022-10-20T09:52:54.487Z,100886.88
2022-10-20T09:55:25.097Z,100943.22
2022-10-20T09:56:48.287Z,100943.22
2022-10-20T09:57:53.891Z,100874.53
2022-10-20T10:00:36.958Z,100931.53
2022-10-20T10:01:48.278Z,100931.53
2022-10-20T10:03:21.727Z,100941.03
2022-10-20T10:05:59.681Z,100936.06
2022-10-20T10:06:48.281Z,100936.06
2022-10-20T10:08:41.793Z,100850.78
2022-10-20T10:11:17.797Z,100888.09
2022-10-20T10:11:48.308Z,100888.09
2022-10-20T10:13:47.865Z,100910.22
2022-10-20T10:16:19.430Z,100945.78
2022-10-20T10:16:48.298Z,100945.78
2022-10-20T10:18:55.801Z,100893.50
2022-10-20T10:21:22.537Z,100939.25
2022-10-20T10:21:49.386Z,100939.25
2022-10-20T10:24:01.993Z,100954.91
2022-10-20T10:26:47.353Z,100898.53
2022-10-20T10:26:48.277Z,100898.53
2022-10-20T10:29:18.245Z,100941.63
2022-10-20T10:31:57.637Z,100912.16
2022-10-20T10:31:57.754Z,100912.16
2022-10-20T10:34:40.129Z,100934.00
2022-10-20T10:36:48.270Z,100934.00
2022-10-20T10:37:10.521Z,100889.25
2022-10-20T10:39:37.116Z,100925.88
2022-10-20T10:41:48.343Z,100925.88
2022-10-20T10:42:45.626Z,100901.03
2022-10-20T10:45:19.956Z,100914.28
2022-10-20T10:46:48.306Z,100914.28
2022-10-20T10:47:56.051Z,100921.16
2022-10-20T10:50:27.169Z,100904.97
2022-10-20T10:51:48.283Z,100904.97
2022-10-20T10:53:08.512Z,100894.31
2022-10-20T10:55:49.316Z,100826.75
2022-10-20T10:56:48.293Z,100826.75
2022-10-20T10:58:29.858Z,100889.56
2022-10-20T11:01:09.934Z,100866.97
2022-10-20T11:01:48.287Z,100866.97
2022-10-20T11:03:51.570Z,100899.25
2022-10-20T11:06:25.220Z,100840.41
2022-10-20T11:06:48.290Z,100840.41
2022-10-20T11:08:57.170Z,100834.66
2022-10-20T11:11:59.118Z,100897.59
2022-10-20T11:11:59.231Z,100897.59
2022-10-20T11:14:44.752Z,100910.19
2022-10-20T11:16:48.281Z,100910.19
2022-10-20T11:17:29.320Z,100883.94
2022-10-20T11:20:11.701Z,100890.31
2022-10-20T11:21:48.558Z,100890.31
2022-10-20T11:22:50.419Z,100915.16
2022-10-20T11:25:26.052Z,100914.66
2022-10-20T11:26:48.405Z,100914.66
2022-10-20T11:27:52.610Z,100892.88
2022-10-20T11:30:21.956Z,100901.00
2022-10-20T11:31:48.345Z,100901.00
2022-10-20T11:32:59.117Z,100911.53
2022-10-20T11:35:31.655Z,100911.53
2022-10-20T11:36:48.330Z,100911.53
2022-10-20T11:38:16.966Z,100907.28
2022-10-20T11:40:48.661Z,100764.25
2022-10-20T11:41:48.359Z,100764.25
2022-10-20T11:43:31.897Z,100895.50
2022-10-20T11:46:08.068Z,100891.84
2022-10-20T11:46:48.307Z,100891.84
2022-10-20T11:48:49.169Z,100847.66
2022-10-20T11:51:30.888Z,100895.91
2022-10-20T11:51:48.314Z,100895.91
2022-10-20T11:54:10.359Z,100894.56
2022-10-20T11:56:55.035Z,100889.28
2022-10-20T11:56:55.145Z,100889.28
2022-10-20T11:59:36.971Z,100882.66
2022-10-20T12:01:48.356Z,100882.66
2022-10-20T12:02:29.946Z,100877.97
2022-10-20T12:05:30.012Z,100855.84
2022-10-20T12:06:48.359Z,100855.84
2022-10-20T12:08:33.904Z,100825.31
2022-10-20T12:11:16.539Z,100782.41
2022-10-20T12:11:48.356Z,100782.41
2022-10-20T12:13:58.187Z,100792.56
2022-10-20T12:16:53.636Z,100827.09
2022-10-20T12:16:53.769Z,100827.09
2022-10-20T12:19:27.416Z,100824.03
2022-10-20T12:21:48.366Z,100824.03
2022-10-20T12:22:06.700Z,100815.78
2022-10-20T12:24:44.012Z,100802.66
2022-10-20T12:26:48.350Z,100802.66
2022-10-20T12:27:10.402Z,100801.59
2022-10-20T12:29:36.681Z,100791.09
2022-10-20T12:31:48.382Z,100791.09
2022-10-20T12:32:21.815Z,100785.66
2022-10-20T12:34:51.826Z,100757.09
2022-10-20T12:36:48.328Z,100757.09
2022-10-20T12:37:24.827Z,100793.28
2022-10-20T12:39:54.025Z,100786.16
2022-10-20T12:41:48.328Z,100786.16
2022-10-20T12:42:28.853Z,100798.59
2022-10-20T12:45:02.394Z,100766.25
2022-10-20T12:46:48.317Z,100766.25
2022-10-20T12:47:33.939Z,100758.19
2022-10-20T12:50:23.716Z,100791.69
2022-10-20T12:51:48.323Z,100791.69
2022-10-20T12:52:50.141Z,100788.22
2022-10-20T12:55:31.113Z,100747.88
2022-10-20T12:56:48.380Z,100747.88
2022-10-20T12:58:34.261Z,100786.47
2022-10-20T13:01:04.369Z,100782.50
2022-10-20T13:01:48.331Z,100782.50
2022-10-20T13:03:39.886Z,100794.22
2022-10-20T13:06:26.145Z,100786.06
2022-10-20T13:06:48.366Z,100786.06
2022-10-20T13:09:05.016Z,100775.16
2022-10-20T13:11:37.928Z,100773.25
2022-10-20T13:11:48.320Z,100773.25
2022-10-20T13:14:35.205Z,100781.31
2022-10-20T13:16:48.334Z,100781.31
2022-10-20T13:17:17.524Z,100709.34
2022-10-20T13:19:48.886Z,100659.63
2022-10-20T13:21:49.725Z,100659.63
2022-10-20T13:22:37.863Z,100788.13
2022-10-20T13:25:13.218Z,100744.81
2022-10-20T13:26:48.330Z,100744.81
2022-10-20T13:27:39.889Z,100694.22
2022-10-20T13:30:09.060Z,100735.25
2022-10-20T13:31:48.350Z,100735.25
2022-10-20T13:33:18.158Z,100746.78
2022-10-20T13:36:05.091Z,100709.81
2022-10-20T13:36:48.389Z,100709.81
2022-10-20T13:38:43.437Z,100746.53
2022-10-20T13:41:25.653Z,100751.78
2022-10-20T13:41:48.314Z,100751.78
2022-10-20T13:44:20.535Z,100751.78
2022-10-20T13:47:28.115Z,100746.06
2022-10-20T13:47:28.276Z,100746.06
2022-10-20T13:50:06.432Z,100765.41
2022-10-20T13:51:48.312Z,100765.41
2022-10-20T13:52:39.406Z,100756.28
2022-10-20T13:55:08.386Z,100704.28
2022-10-20T13:56:48.364Z,100704.28
2022-10-20T13:57:36.217Z,100748.38
2022-10-20T14:00:16.266Z,100744.34
2022-10-20T14:01:48.336Z,100744.34
2022-10-20T14:02:53.605Z,100736.13
2022-10-20T14:05:23.142Z,100746.81
2022-10-20T14:06:48.332Z,100746.81
2022-10-20T14:07:50.669Z,100748.72
2022-10-20T14:10:27.888Z,100730.97
2022-10-20T14:11:48.337Z,100730.97
2022-10-20T14:12:55.385Z,100740.94
2022-10-20T14:15:30.516Z,100731.66
2022-10-20T14:16:48.338Z,100731.66
2022-10-20T14:17:59.327Z,100725.50
2022-10-20T14:20:26.302Z,100733.03
2022-10-20T14:21:48.362Z,100733.03
2022-10-20T14:22:54.211Z,100739.47
2022-10-20T14:25:22.185Z,100731.59
2022-10-20T14:26:48.409Z,100731.59
2022-10-20T14:27:51.257Z,100709.16
2022-10-20T14:30:18.531Z,100631.81
2022-10-20T14:31:48.331Z,100631.81
2022-10-20T14:32:46.555Z,100595.50
2022-10-20T14:35:18.414Z,100741.72
2022-10-20T14:36:48.342Z,100741.72
2022-10-20T14:37:51.404Z,100641.31
2022-10-20T14:40:19.522Z,100732.66
2022-10-20T14:41:48.328Z,100732.66
2022-10-20T14:42:46.458Z,100740.47
2022-10-20T14:45:24.971Z,100698.00
2022-10-20T14:46:48.380Z,100698.00
2022-10-20T14:47:53.033Z,100689.94
2022-10-20T14:50:23.490Z,100699.56
2022-10-20T14:51:48.339Z,100699.56
2022-10-20T14:52:53.994Z,100718.63
2022-10-20T14:55:36.882Z,100734.97
2022-10-20T14:56:48.405Z,100734.97
2022-10-20T14:58:03.912Z,100731.59
2022-10-20T15:00:36.012Z,100727.19
2022-10-20T15:01:50.725Z,100727.19
2022-10-20T15:03:06.935Z,100735.03
2022-10-20T15:05:45.059Z,100721.56
2022-10-20T15:06:48.442Z,100721.56
2022-10-20T15:08:20.800Z,100738.25
2022-10-20T15:10:47.534Z,100691.06
2022-10-20T15:11:48.341Z,100691.06
2022-10-20T15:13:27.720Z,100732.53
2022-10-20T15:15:55.427Z,100693.91
2022-10-20T15:16:48.363Z,100693.91
2022-10-20T15:18:23.444Z,100724.53
2022-10-20T15:20:51.109Z,100703.97
2022-10-20T15:21:48.340Z,100703.97
2022-10-20T15:23:28.209Z,100714.88
2022-10-20T15:26:00.275Z,100710.72
2022-10-20T15:26:48.698Z,100710.72
2022-10-20T15:28:48.122Z,100640.59
2022-10-20T15:31:22.351Z,100703.56
2022-10-20T15:31:48.331Z,100703.56
2022-10-20T15:33:48.914Z,100702.06
2022-10-20T15:36:19.629Z,100702.06
2022-10-20T15:36:50.377Z,100702.06
2022-10-20T15:38:46.479Z,100646.59
2022-10-20T15:41:17.801Z,100645.13
2022-10-20T15:41:50.291Z,100645.13
2022-10-20T15:43:48.365Z,100691.16
2022-10-20T15:46:16.625Z,100692.59
2022-10-20T15:46:48.339Z,100692.59
2022-10-20T15:48:43.550Z,100644.38
2022-10-20T15:51:31.677Z,100694.47
2022-10-20T15:51:48.628Z,100694.47
2022-10-20T15:53:58.605Z,100684.78
2022-10-20T15:56:25.116Z,100685.84
2022-10-20T15:56:48.452Z,100685.84
2022-10-20T15:58:51.726Z,100574.38
2022-10-20T16:01:19.904Z,100667.50
2022-10-20T16:01:48.369Z,100667.50
2022-10-20T16:03:49.557Z,100671.09
2022-10-20T16:06:17.963Z,100674.75
2022-10-20T16:06:48.373Z,100674.75
2022-10-20T16:08:47.039Z,100634.22
2022-10-20T16:11:15.290Z,100663.56
2022-10-20T16:11:48.351Z,100663.56
2022-10-20T16:13:42.104Z,100615.34
2022-10-20T16:16:12.754Z,100653.41
2022-10-20T16:16:48.351Z,100653.41
2022-10-20T16:18:39.212Z,100615.81
2022-10-20T16:21:05.904Z,100636.50
2022-10-20T16:21:48.346Z,100636.50
2022-10-20T16:23:35.026Z,100645.34
2022-10-20T16:26:11.028Z,100608.22
2022-10-20T16:26:48.368Z,100608.22
2022-10-20T16:28:38.545Z,100603.22
2022-10-20T16:31:08.022Z,100634.06
2022-10-20T16:31:48.353Z,100634.06
2022-10-20T16:33:35.026Z,100630.56
2022-10-20T16:36:04.350Z,100621.75
2022-10-20T16:36:48.365Z,100621.75
2022-10-20T16:38:37.363Z,100617.16
2022-10-20T16:41:09.900Z,100624.56
2022-10-20T16:41:48.346Z,100624.56
2022-10-20T16:43:40.310Z,100579.25
2022-10-20T16:46:08.536Z,100627.31
2022-10-20T16:46:48.353Z,100627.31
2022-10-20T16:48:37.060Z,100546.75
2022-10-20T16:51:06.552Z,100565.84
2022-10-20T16:51:48.360Z,100565.84
2022-10-20T16:53:33.255Z,100618.25
2022-10-20T16:55:59.758Z,100613.56
2022-10-20T16:56:48.375Z,100613.56
2022-10-20T16:58:26.087Z,100618.25
2022-10-20T17:00:57.670Z,100606.72
2022-10-20T17:01:48.393Z,100606.72
2022-10-20T17:03:24.071Z,100615.44
2022-10-20T17:05:55.635Z,100578.03
2022-10-20T17:06:48.357Z,100578.03
2022-10-20T17:08:23.115Z,100603.22
2022-10-20T17:10:55.018Z,100606.81
2022-10-20T17:11:48.355Z,100606.81
2022-10-20T17:13:21.328Z,100589.50
2022-10-20T17:15:47.684Z,100545.16
2022-10-20T17:16:48.364Z,100545.16
2022-10-20T17:18:14.025Z,100605.28
2022-10-20T17:20:40.347Z,100599.28
2022-10-20T17:21:51.262Z,100599.28
2022-10-20T17:23:06.673Z,100599.28
2022-10-20T17:25:33.038Z,100531.53
2022-10-20T17:26:48.547Z,100531.53
2022-10-20T17:28:01.249Z,100563.28
2022-10-20T17:30:29.462Z,100544.19
2022-10-20T17:31:48.350Z,100544.19
2022-10-20T17:32:55.973Z,100618.44
2022-10-20T17:35:22.401Z,100573.44
2022-10-20T17:36:48.362Z,100573.44
2022-10-20T17:37:48.712Z,100599.94
2022-10-20T17:40:15.137Z,100544.28
2022-10-20T17:41:48.348Z,100544.28
2022-10-20T17:42:41.497Z,100546.63
2022-10-20T17:45:08.313Z,100583.22
2022-10-20T17:46:48.367Z,100583.22
2022-10-20T17:47:34.652Z,100547.69
2022-10-20T17:50:01.056Z,100583.88
2022-10-20T17:51:48.355Z,100583.88
2022-10-20T17:52:29.150Z,100569.97
2022-10-20T17:54:55.489Z,100596.44
2022-10-20T17:56:48.476Z,100596.44
2022-10-20T17:57:21.793Z,100533.22
2022-10-20T17:59:53.277Z,100577.84
2022-10-20T18:01:48.485Z,100577.84
2022-10-20T18:02:23.477Z,100586.50
2022-10-20T18:04:50.801Z,100582.75
2022-10-20T18:06:48.346Z,100582.75
2022-10-20T18:07:17.141Z,100582.75
2022-10-20T18:09:43.956Z,100579.91
2022-10-20T18:11:48.411Z,100579.91
2022-10-20T18:12:10.361Z,100521.13
2022-10-20T18:14:36.665Z,100566.66
2022-10-20T18:16:48.347Z,100566.66
2022-10-20T18:17:03.034Z,100572.50
2022-10-20T18:19:29.437Z,100526.91
2022-10-20T18:21:48.379Z,100526.91
2022-10-20T18:21:55.777Z,100567.59
2022-10-20T18:24:22.143Z,100556.59
2022-10-20T18:26:48.737Z,100508.22
2022-10-20T18:26:49.537Z,100508.22
2022-10-20T18:29:16.686Z,100559.78
2022-10-20T18:31:44.840Z,100532.75
2022-10-20T18:31:48.363Z,100532.75
2022-10-20T18:34:13.955Z,100569.47
2022-10-20T18:36:43.516Z,100526.91
2022-10-20T18:36:48.378Z,100526.91
2022-10-20T18:39:12.881Z,100496.47
2022-10-20T18:41:40.881Z,100556.31
2022-10-20T18:41:48.354Z,100556.31
2022-10-20T18:44:11.245Z,100486.41
2022-10-20T18:46:39.181Z,100550.66
2022-10-20T18:46:48.367Z,100550.66
2022-10-20T18:49:07.122Z,100512.53
2022-10-20T18:51:35.219Z,100530.00
2022-10-20T18:51:48.364Z,100530.00
2022-10-20T18:54:01.955Z,100479.47
2022-10-20T18:56:29.856Z,100542.69
2022-10-20T18:56:48.459Z,100542.69
2022-10-20T18:59:01.513Z,100538.25
2022-10-20T19:01:31.521Z,100515.16
2022-10-20T19:01:48.381Z,100515.16
2022-10-20T19:03:59.430Z,100542.19
2022-10-20T19:06:29.255Z,100537.06
2022-10-20T19:06:48.348Z,100537.06
2022-10-20T19:08:57.913Z,100536.31
2022-10-20T19:11:26.783Z,100524.72
2022-10-20T19:13:53.674Z,100526.63
2022-10-20T19:16:26.091Z,100524.06